Terminal Aerodrome Forecast
Issued by NWS

Current Version | Previous Version | Text Only | Print | Product List | Glossary On
Versions: 1 2 3 4 5 6 7 8 9 10 11 12 13 14 15 16 17 18 19 20 21 22 23 24 25 26 27 28 29 30 31
000
FTUS45 KSLC 201731
TAFOGD
TAF
KOGD 201731Z 2018/2118 14005KT P6SM VCSH SCT015 BKN035
      TEMPO 2018/2022 6SM -RA BR BKN010
     FM202200 17005KT P6SM VCSH SCT020 BKN040
     FM210900 17012G22KT 6SM -RASN SCT010 BKN035=

USA.gov is the U.S. government's official web portal to all federal, state and local government web resources and services.